sensor_id;sensor_type;location;lat;lon;timestamp;P1;durP1;ratioP1;P2;durP2;ratioP2
50717;SDS011;60557;51.350;12.410;2023-03-21T00:01:41;20.10;;;13.55;;
50717;SDS011;60557;51.350;12.410;2023-03-21T00:04:07;19.23;;;13.35;;
50717;SDS011;60557;51.350;12.410;2023-03-21T00:06:36;21.63;;;13.10;;
50717;SDS011;60557;51.350;12.410;2023-03-21T00:09:03;19.70;;;12.68;;
50717;SDS011;60557;51.350;12.410;2023-03-21T00:11:31;15.82;;;12.15;;
50717;SDS011;60557;51.350;12.410;2023-03-21T00:13:57;18.08;;;12.10;;
50717;SDS011;60557;51.350;12.410;2023-03-21T00:16:26;19.25;;;12.07;;
50717;SDS011;60557;51.350;12.410;2023-03-21T00:18:54;18.33;;;13.82;;
50717;SDS011;60557;51.350;12.410;2023-03-21T00:21:21;18.23;;;12.63;;
50717;SDS011;60557;51.350;12.410;2023-03-21T00:23:52;17.25;;;10.90;;
50717;SDS011;60557;51.350;12.410;2023-03-21T00:26:18;15.63;;;12.48;;
50717;SDS011;60557;51.350;12.410;2023-03-21T00:28:47;14.90;;;11.25;;
50717;SDS011;60557;51.350;12.410;2023-03-21T00:31:13;13.77;;;9.43;;
50717;SDS011;60557;51.350;12.410;2023-03-21T00:33:40;15.60;;;9.60;;
50717;SDS011;60557;51.350;12.410;2023-03-21T00:36:06;11.95;;;7.65;;
50717;SDS011;60557;51.350;12.410;2023-03-21T00:38:33;9.20;;;6.30;;
50717;SDS011;60557;51.350;12.410;2023-03-21T00:41:02;13.23;;;8.15;;
50717;SDS011;60557;51.350;12.410;2023-03-21T00:43:29;13.73;;;8.48;;
50717;SDS011;60557;51.350;12.410;2023-03-21T00:45:57;9.63;;;7.35;;
50717;SDS011;60557;51.350;12.410;2023-03-21T00:48:24;13.32;;;8.20;;
50717;SDS011;60557;51.350;12.410;2023-03-21T00:50:51;12.35;;;8.43;;
50717;SDS011;60557;51.350;12.410;2023-03-21T00:53:20;10.10;;;7.57;;
50717;SDS011;60557;51.350;12.410;2023-03-21T00:55:46;12.07;;;7.65;;
50717;SDS011;60557;51.350;12.410;2023-03-21T00:58:12;6.70;;;5.03;;
50717;SDS011;60557;51.350;12.410;2023-03-21T01:00:41;10.98;;;7.40;;
50717;SDS011;60557;51.350;12.410;2023-03-21T01:03:09;16.02;;;9.95;;
50717;SDS011;60557;51.350;12.410;2023-03-21T01:05:42;14.75;;;10.20;;
50717;SDS011;60557;51.350;12.410;2023-03-21T01:08:27;19.52;;;9.88;;
50717;SDS011;60557;51.350;12.410;2023-03-21T01:10:53;11.18;;;9.05;;
50717;SDS011;60557;51.350;12.410;2023-03-21T01:13:21;13.52;;;8.93;;
50717;SDS011;60557;51.350;12.410;2023-03-21T01:15:51;12.55;;;9.25;;
50717;SDS011;60557;51.350;12.410;2023-03-21T01:18:19;12.40;;;9.98;;
50717;SDS011;60557;51.350;12.410;2023-03-21T01:20:45;11.13;;;8.35;;
50717;SDS011;60557;51.350;12.410;2023-03-21T01:23:14;12.80;;;8.80;;
50717;SDS011;60557;51.350;12.410;2023-03-21T01:25:41;16.63;;;9.45;;
50717;SDS011;60557;51.350;12.410;2023-03-21T01:28:07;15.00;;;10.02;;
50717;SDS011;60557;51.350;12.410;2023-03-21T01:30:33;13.57;;;9.40;;
50717;SDS011;60557;51.350;12.410;2023-03-21T01:32:59;14.90;;;8.80;;
50717;SDS011;60557;51.350;12.410;2023-03-21T01:35:26;18.70;;;11.00;;
50717;SDS011;60557;51.350;12.410;2023-03-21T01:37:52;13.73;;;9.32;;
50717;SDS011;60557;51.350;12.410;2023-03-21T01:40:19;15.93;;;9.30;;
50717;SDS011;60557;51.350;12.410;2023-03-21T01:42:46;13.30;;;9.20;;
50717;SDS011;60557;51.350;12.410;2023-03-21T01:47:59;12.85;;;7.45;;
50717;SDS011;60557;51.350;12.410;2023-03-21T01:50:25;13.13;;;10.00;;
50717;SDS011;60557;51.350;12.410;2023-03-21T01:52:54;12.13;;;7.60;;
50717;SDS011;60557;51.350;12.410;2023-03-21T01:55:20;15.77;;;9.40;;
50717;SDS011;60557;51.350;12.410;2023-03-21T01:57:48;13.07;;;9.73;;
50717;SDS011;60557;51.350;12.410;2023-03-21T02:02:43;19.15;;;9.48;;
50717;SDS011;60557;51.350;12.410;2023-03-21T02:05:28;17.48;;;11.05;;
50717;SDS011;60557;51.350;12.410;2023-03-21T02:07:57;15.73;;;10.02;;
50717;SDS011;60557;51.350;12.410;2023-03-21T02:10:27;16.35;;;9.93;;
50717;SDS011;60557;51.350;12.410;2023-03-21T02:12:54;17.52;;;9.88;;
50717;SDS011;60557;51.350;12.410;2023-03-21T02:15:22;15.90;;;11.55;;
50717;SDS011;60557;51.350;12.410;2023-03-21T02:17:57;16.08;;;11.30;;
50717;SDS011;60557;51.350;12.410;2023-03-21T02:23:17;16.23;;;10.07;;
50717;SDS011;60557;51.350;12.410;2023-03-21T02:28:33;18.30;;;10.55;;
50717;SDS011;60557;51.350;12.410;2023-03-21T02:36:09;11.55;;;8.43;;
50717;SDS011;60557;51.350;12.410;2023-03-21T02:38:40;12.00;;;8.45;;
50717;SDS011;60557;51.350;12.410;2023-03-21T02:46:14;12.35;;;7.53;;
50717;SDS011;60557;51.350;12.410;2023-03-21T02:48:47;14.40;;;7.20;;
50717;SDS011;60557;51.350;12.410;2023-03-21T02:51:16;10.63;;;7.78;;
50717;SDS011;60557;51.350;12.410;2023-03-21T02:56:12;10.55;;;7.45;;
50717;SDS011;60557;51.350;12.410;2023-03-21T02:58:39;10.27;;;7.57;;
50717;SDS011;60557;51.350;12.410;2023-03-21T03:01:06;13.02;;;7.80;;
50717;SDS011;60557;51.350;12.410;2023-03-21T03:03:33;10.77;;;7.97;;
50717;SDS011;60557;51.350;12.410;2023-03-21T03:06:06;10.63;;;7.40;;
50717;SDS011;60557;51.350;12.410;2023-03-21T03:18:50;12.65;;;7.35;;
50717;SDS011;60557;51.350;12.410;2023-03-21T03:21:27;12.70;;;7.40;;
50717;SDS011;60557;51.350;12.410;2023-03-21T03:24:05;12.40;;;7.97;;
50717;SDS011;60557;51.350;12.410;2023-03-21T03:29:03;15.90;;;7.13;;
50717;SDS011;60557;51.350;12.410;2023-03-21T03:31:32;11.23;;;7.38;;
50717;SDS011;60557;51.350;12.410;2023-03-21T03:34:04;11.75;;;6.57;;
50717;SDS011;60557;51.350;12.410;2023-03-21T03:36:32;15.68;;;7.10;;
50717;SDS011;60557;51.350;12.410;2023-03-21T03:39:02;14.25;;;6.28;;
50717;SDS011;60557;51.350;12.410;2023-03-21T03:41:29;15.63;;;6.95;;
50717;SDS011;60557;51.350;12.410;2023-03-21T03:43:58;11.32;;;5.82;;
50717;SDS011;60557;51.350;12.410;2023-03-21T03:46:38;9.20;;;5.57;;
50717;SDS011;60557;51.350;12.410;2023-03-21T03:49:22;9.07;;;6.45;;
50717;SDS011;60557;51.350;12.410;2023-03-21T03:51:53;7.30;;;5.85;;
50717;SDS011;60557;51.350;12.410;2023-03-21T03:54:26;7.30;;;5.43;;
50717;SDS011;60557;51.350;12.410;2023-03-21T03:56:54;13.93;;;6.25;;
50717;SDS011;60557;51.350;12.410;2023-03-21T03:59:21;8.35;;;5.05;;
50717;SDS011;60557;51.350;12.410;2023-03-21T04:01:49;10.82;;;7.05;;
50717;SDS011;60557;51.350;12.410;2023-03-21T04:04:15;9.63;;;5.55;;
50717;SDS011;60557;51.350;12.410;2023-03-21T04:06:43;13.20;;;5.88;;
50717;SDS011;60557;51.350;12.410;2023-03-21T04:09:18;8.27;;;5.55;;
50717;SDS011;60557;51.350;12.410;2023-03-21T04:11:44;15.70;;;6.70;;
50717;SDS011;60557;51.350;12.410;2023-03-21T04:14:10;12.38;;;5.85;;
50717;SDS011;60557;51.350;12.410;2023-03-21T04:16:36;10.00;;;5.82;;
50717;SDS011;60557;51.350;12.410;2023-03-21T04:19:05;11.10;;;5.85;;
50717;SDS011;60557;51.350;12.410;2023-03-21T04:21:31;9.73;;;5.85;;
50717;SDS011;60557;51.350;12.410;2023-03-21T04:23:57;9.00;;;5.72;;
50717;SDS011;60557;51.350;12.410;2023-03-21T04:26:24;6.25;;;5.18;;
50717;SDS011;60557;51.350;12.410;2023-03-21T04:28:55;12.88;;;6.43;;
50717;SDS011;60557;51.350;12.410;2023-03-21T04:31:21;8.35;;;5.30;;
50717;SDS011;60557;51.350;12.410;2023-03-21T04:33:51;10.05;;;4.68;;
50717;SDS011;60557;51.350;12.410;2023-03-21T04:36:17;9.40;;;5.22;;
50717;SDS011;60557;51.350;12.410;2023-03-21T04:38:50;8.82;;;5.13;;
50717;SDS011;60557;51.350;12.410;2023-03-21T04:41:16;22.02;;;6.47;;
50717;SDS011;60557;51.350;12.410;2023-03-21T04:43:45;7.68;;;5.55;;
50717;SDS011;60557;51.350;12.410;2023-03-21T04:46:11;8.13;;;5.40;;
50717;SDS011;60557;51.350;12.410;2023-03-21T04:48:37;12.23;;;5.53;;
50717;SDS011;60557;51.350;12.410;2023-03-21T04:51:06;11.63;;;6.30;;
50717;SDS011;60557;51.350;12.410;2023-03-21T04:53:34;8.48;;;4.57;;
50717;SDS011;60557;51.350;12.410;2023-03-21T04:56:02;7.60;;;4.53;;
50717;SDS011;60557;51.350;12.410;2023-03-21T04:58:28;10.20;;;5.30;;
50717;SDS011;60557;51.350;12.410;2023-03-21T05:00:54;10.65;;;5.53;;
50717;SDS011;60557;51.350;12.410;2023-03-21T05:03:23;10.30;;;5.65;;
50717;SDS011;60557;51.350;12.410;2023-03-21T05:05:50;12.23;;;5.57;;
50717;SDS011;60557;51.350;12.410;2023-03-21T05:08:16;12.95;;;5.97;;
50717;SDS011;60557;51.350;12.410;2023-03-21T05:10:42;7.65;;;5.07;;
50717;SDS011;60557;51.350;12.410;2023-03-21T05:13:08;12.32;;;5.22;;
50717;SDS011;60557;51.350;12.410;2023-03-21T05:15:34;13.00;;;6.13;;
50717;SDS011;60557;51.350;12.410;2023-03-21T05:18:00;9.13;;;5.18;;
50717;SDS011;60557;51.350;12.410;2023-03-21T05:20:35;11.15;;;5.70;;
50717;SDS011;60557;51.350;12.410;2023-03-21T05:23:01;13.65;;;5.78;;
50717;SDS011;60557;51.350;12.410;2023-03-21T05:25:30;9.27;;;5.97;;
50717;SDS011;60557;51.350;12.410;2023-03-21T05:28:00;11.63;;;5.38;;
50717;SDS011;60557;51.350;12.410;2023-03-21T05:30:26;9.38;;;4.78;;
50717;SDS011;60557;51.350;12.410;2023-03-21T05:32:53;11.00;;;5.28;;
50717;SDS011;60557;51.350;12.410;2023-03-21T05:35:19;9.85;;;5.32;;
50717;SDS011;60557;51.350;12.410;2023-03-21T05:37:48;8.80;;;4.90;;
50717;SDS011;60557;51.350;12.410;2023-03-21T05:40:14;10.98;;;6.05;;
50717;SDS011;60557;51.350;12.410;2023-03-21T05:42:40;10.07;;;4.93;;
50717;SDS011;60557;51.350;12.410;2023-03-21T05:45:06;10.35;;;5.63;;
50717;SDS011;60557;51.350;12.410;2023-03-21T05:47:32;11.27;;;5.47;;
50717;SDS011;60557;51.350;12.410;2023-03-21T05:50:01;10.40;;;6.45;;
50717;SDS011;60557;51.350;12.410;2023-03-21T05:52:27;7.85;;;4.38;;
50717;SDS011;60557;51.350;12.410;2023-03-21T05:54:53;9.68;;;4.90;;
50717;SDS011;60557;51.350;12.410;2023-03-21T05:57:22;9.27;;;5.10;;
50717;SDS011;60557;51.350;12.410;2023-03-21T05:59:48;13.48;;;4.63;;
50717;SDS011;60557;51.350;12.410;2023-03-21T06:02:17;9.45;;;4.95;;
50717;SDS011;60557;51.350;12.410;2023-03-21T06:04:43;9.63;;;4.60;;
50717;SDS011;60557;51.350;12.410;2023-03-21T06:07:09;10.38;;;4.95;;
50717;SDS011;60557;51.350;12.410;2023-03-21T06:09:35;10.10;;;5.57;;
50717;SDS011;60557;51.350;12.410;2023-03-21T06:12:01;11.35;;;6.22;;
50717;SDS011;60557;51.350;12.410;2023-03-21T06:14:27;18.50;;;6.90;;
50717;SDS011;60557;51.350;12.410;2023-03-21T06:16:53;41.85;;;18.42;;
50717;SDS011;60557;51.350;12.410;2023-03-21T06:19:20;37.25;;;18.90;;
50717;SDS011;60557;51.350;12.410;2023-03-21T06:21:46;20.58;;;10.30;;
50717;SDS011;60557;51.350;12.410;2023-03-21T06:24:12;12.02;;;6.65;;
50717;SDS011;60557;51.350;12.410;2023-03-21T06:26:38;12.43;;;6.10;;
50717;SDS011;60557;51.350;12.410;2023-03-21T06:29:06;10.80;;;5.38;;
50717;SDS011;60557;51.350;12.410;2023-03-21T06:31:32;16.80;;;6.40;;
50717;SDS011;60557;51.350;12.410;2023-03-21T06:33:58;9.82;;;5.57;;
50717;SDS011;60557;51.350;12.410;2023-03-21T06:36:24;12.68;;;4.65;;
50717;SDS011;60557;51.350;12.410;2023-03-21T06:38:53;11.13;;;4.55;;
50717;SDS011;60557;51.350;12.410;2023-03-21T06:41:19;9.25;;;4.60;;
50717;SDS011;60557;51.350;12.410;2023-03-21T06:43:45;13.23;;;7.38;;
50717;SDS011;60557;51.350;12.410;2023-03-21T06:46:12;12.55;;;5.25;;
50717;SDS011;60557;51.350;12.410;2023-03-21T06:48:38;11.48;;;4.88;;
50717;SDS011;60557;51.350;12.410;2023-03-21T06:51:08;7.97;;;3.90;;
50717;SDS011;60557;51.350;12.410;2023-03-21T06:53:35;11.00;;;4.78;;
50717;SDS011;60557;51.350;12.410;2023-03-21T06:56:03;12.00;;;4.25;;
50717;SDS011;60557;51.350;12.410;2023-03-21T06:58:32;13.57;;;4.57;;
50717;SDS011;60557;51.350;12.410;2023-03-21T07:00:58;8.55;;;4.05;;
50717;SDS011;60557;51.350;12.410;2023-03-21T07:03:25;9.82;;;3.50;;
50717;SDS011;60557;51.350;12.410;2023-03-21T07:05:51;9.48;;;3.90;;
50717;SDS011;60557;51.350;12.410;2023-03-21T07:08:18;11.65;;;4.85;;
50717;SDS011;60557;51.350;12.410;2023-03-21T07:10:47;11.48;;;4.82;;
50717;SDS011;60557;51.350;12.410;2023-03-21T07:13:15;9.40;;;4.40;;
50717;SDS011;60557;51.350;12.410;2023-03-21T07:15:41;12.48;;;5.47;;
50717;SDS011;60557;51.350;12.410;2023-03-21T07:18:10;9.82;;;3.85;;
50717;SDS011;60557;51.350;12.410;2023-03-21T07:20:36;8.10;;;3.72;;
50717;SDS011;60557;51.350;12.410;2023-03-21T07:23:02;9.40;;;4.47;;
50717;SDS011;60557;51.350;12.410;2023-03-21T07:25:28;12.88;;;4.30;;
50717;SDS011;60557;51.350;12.410;2023-03-21T07:27:54;11.57;;;3.90;;
50717;SDS011;60557;51.350;12.410;2023-03-21T07:30:21;13.20;;;4.28;;
50717;SDS011;60557;51.350;12.410;2023-03-21T07:32:49;11.27;;;4.50;;
50717;SDS011;60557;51.350;12.410;2023-03-21T07:35:17;10.68;;;4.55;;
50717;SDS011;60557;51.350;12.410;2023-03-21T07:37:43;11.77;;;4.25;;
50717;SDS011;60557;51.350;12.410;2023-03-21T07:40:09;7.90;;;3.90;;
50717;SDS011;60557;51.350;12.410;2023-03-21T07:42:36;13.73;;;4.72;;
50717;SDS011;60557;51.350;12.410;2023-03-21T07:45:03;7.15;;;3.83;;
50717;SDS011;60557;51.350;12.410;2023-03-21T07:47:31;7.13;;;3.90;;
50717;SDS011;60557;51.350;12.410;2023-03-21T07:49:58;9.13;;;3.80;;
50717;SDS011;60557;51.350;12.410;2023-03-21T07:52:24;6.60;;;3.38;;
50717;SDS011;60557;51.350;12.410;2023-03-21T07:54:50;15.48;;;3.70;;
50717;SDS011;60557;51.350;12.410;2023-03-21T07:57:16;10.55;;;3.47;;
50717;SDS011;60557;51.350;12.410;2023-03-21T07:59:43;8.43;;;2.45;;
50717;SDS011;60557;51.350;12.410;2023-03-21T08:02:12;7.95;;;3.17;;
50717;SDS011;60557;51.350;12.410;2023-03-21T08:04:39;7.47;;;3.28;;
50717;SDS011;60557;51.350;12.410;2023-03-21T08:07:05;10.70;;;3.75;;
50717;SDS011;60557;51.350;12.410;2023-03-21T08:09:31;10.60;;;4.03;;
50717;SDS011;60557;51.350;12.410;2023-03-21T08:11:57;6.18;;;3.13;;
50717;SDS011;60557;51.350;12.410;2023-03-21T08:14:25;8.77;;;4.22;;
50717;SDS011;60557;51.350;12.410;2023-03-21T08:16:52;11.88;;;2.65;;
50717;SDS011;60557;51.350;12.410;2023-03-21T08:19:18;10.23;;;3.60;;
50717;SDS011;60557;51.350;12.410;2023-03-21T08:21:46;9.48;;;3.92;;
50717;SDS011;60557;51.350;12.410;2023-03-21T08:24:13;12.23;;;4.15;;
50717;SDS011;60557;51.350;12.410;2023-03-21T08:26:40;7.32;;;3.53;;
50717;SDS011;60557;51.350;12.410;2023-03-21T08:29:07;9.75;;;3.90;;
50717;SDS011;60557;51.350;12.410;2023-03-21T08:31:34;11.32;;;4.07;;
50717;SDS011;60557;51.350;12.410;2023-03-21T08:34:00;8.48;;;3.15;;
50717;SDS011;60557;51.350;12.410;2023-03-21T08:36:26;14.43;;;4.35;;
50717;SDS011;60557;51.350;12.410;2023-03-21T08:38:54;11.68;;;3.85;;
50717;SDS011;60557;51.350;12.410;2023-03-21T08:41:28;8.05;;;2.85;;
50717;SDS011;60557;51.350;12.410;2023-03-21T08:43:54;9.00;;;3.80;;
50717;SDS011;60557;51.350;12.410;2023-03-21T08:46:23;10.88;;;2.92;;
50717;SDS011;60557;51.350;12.410;2023-03-21T08:48:49;10.30;;;3.30;;
50717;SDS011;60557;51.350;12.410;2023-03-21T08:51:15;7.90;;;3.33;;
50717;SDS011;60557;51.350;12.410;2023-03-21T08:53:41;7.47;;;3.65;;
50717;SDS011;60557;51.350;12.410;2023-03-21T08:56:08;12.23;;;3.10;;
50717;SDS011;60557;51.350;12.410;2023-03-21T08:58:34;11.30;;;3.60;;
50717;SDS011;60557;51.350;12.410;2023-03-21T09:01:03;5.00;;;2.30;;
50717;SDS011;60557;51.350;12.410;2023-03-21T09:03:31;8.98;;;3.67;;
50717;SDS011;60557;51.350;12.410;2023-03-21T09:05:59;7.53;;;3.45;;
50717;SDS011;60557;51.350;12.410;2023-03-21T09:08:27;13.45;;;3.47;;
50717;SDS011;60557;51.350;12.410;2023-03-21T09:10:53;9.30;;;3.60;;
50717;SDS011;60557;51.350;12.410;2023-03-21T09:13:23;12.88;;;3.78;;
50717;SDS011;60557;51.350;12.410;2023-03-21T09:15:49;8.95;;;2.90;;
50717;SDS011;60557;51.350;12.410;2023-03-21T09:18:16;8.45;;;3.20;;
50717;SDS011;60557;51.350;12.410;2023-03-21T09:20:46;8.37;;;3.50;;
50717;SDS011;60557;51.350;12.410;2023-03-21T09:23:14;9.05;;;3.90;;
50717;SDS011;60557;51.350;12.410;2023-03-21T09:25:40;7.53;;;2.92;;
50717;SDS011;60557;51.350;12.410;2023-03-21T09:28:07;8.38;;;3.70;;
50717;SDS011;60557;51.350;12.410;2023-03-21T09:30:34;5.45;;;3.13;;
50717;SDS011;60557;51.350;12.410;2023-03-21T09:33:02;8.05;;;3.45;;
50717;SDS011;60557;51.350;12.410;2023-03-21T09:35:30;8.98;;;3.15;;
50717;SDS011;60557;51.350;12.410;2023-03-21T09:37:57;11.68;;;3.88;;
50717;SDS011;60557;51.350;12.410;2023-03-21T09:45:29;6.60;;;3.30;;
50717;SDS011;60557;51.350;12.410;2023-03-21T09:47:58;10.23;;;3.28;;
50717;SDS011;60557;51.350;12.410;2023-03-21T09:50:33;13.98;;;3.78;;
50717;SDS011;60557;51.350;12.410;2023-03-21T09:53:10;10.50;;;3.25;;
50717;SDS011;60557;51.350;12.410;2023-03-21T09:55:41;8.23;;;4.20;;
50717;SDS011;60557;51.350;12.410;2023-03-21T10:00:48;10.30;;;3.63;;
50717;SDS011;60557;51.350;12.410;2023-03-21T10:03:28;22.13;;;5.00;;
50717;SDS011;60557;51.350;12.410;2023-03-21T10:05:59;8.00;;;3.60;;
50717;SDS011;60557;51.350;12.410;2023-03-21T10:08:29;12.85;;;3.83;;
50717;SDS011;60557;51.350;12.410;2023-03-21T10:13:27;6.85;;;3.13;;
50717;SDS011;60557;51.350;12.410;2023-03-21T10:15:56;11.13;;;3.40;;
50717;SDS011;60557;51.350;12.410;2023-03-21T10:18:23;8.93;;;3.45;;
50717;SDS011;60557;51.350;12.410;2023-03-21T10:20:52;7.10;;;3.10;;
50717;SDS011;60557;51.350;12.410;2023-03-21T10:23:19;10.00;;;4.22;;
50717;SDS011;60557;51.350;12.410;2023-03-21T10:25:51;10.00;;;4.05;;
50717;SDS011;60557;51.350;12.410;2023-03-21T10:28:21;8.70;;;2.97;;
50717;SDS011;60557;51.350;12.410;2023-03-21T10:30:53;11.13;;;3.40;;
50717;SDS011;60557;51.350;12.410;2023-03-21T10:33:24;11.85;;;4.03;;
50717;SDS011;60557;51.350;12.410;2023-03-21T10:38:17;5.68;;;3.20;;
50717;SDS011;60557;51.350;12.410;2023-03-21T10:40:44;9.75;;;3.13;;
50717;SDS011;60557;51.350;12.410;2023-03-21T10:45:51;9.98;;;3.30;;
50717;SDS011;60557;51.350;12.410;2023-03-21T10:48:18;8.15;;;3.53;;
50717;SDS011;60557;51.350;12.410;2023-03-21T10:50:47;9.85;;;4.22;;
50717;SDS011;60557;51.350;12.410;2023-03-21T10:53:37;7.75;;;4.20;;
50717;SDS011;60557;51.350;12.410;2023-03-21T10:56:00;6.35;;;2.63;;
50717;SDS011;60557;51.350;12.410;2023-03-21T10:58:32;7.50;;;3.72;;
50717;SDS011;60557;51.350;12.410;2023-03-21T11:01:04;10.05;;;3.55;;
50717;SDS011;60557;51.350;12.410;2023-03-21T11:06:16;6.45;;;2.90;;
50717;SDS011;60557;51.350;12.410;2023-03-21T11:08:48;6.25;;;2.90;;
50717;SDS011;60557;51.350;12.410;2023-03-21T11:11:19;7.13;;;3.60;;
50717;SDS011;60557;51.350;12.410;2023-03-21T11:13:47;9.15;;;2.85;;
50717;SDS011;60557;51.350;12.410;2023-03-21T11:16:23;7.05;;;2.90;;
50717;SDS011;60557;51.350;12.410;2023-03-21T11:18:56;7.47;;;3.45;;
50717;SDS011;60557;51.350;12.410;2023-03-21T11:21:22;5.47;;;2.40;;
50717;SDS011;60557;51.350;12.410;2023-03-21T11:23:52;7.10;;;2.92;;
50717;SDS011;60557;51.350;12.410;2023-03-21T11:26:26;9.27;;;3.25;;
50717;SDS011;60557;51.350;12.410;2023-03-21T11:28:54;7.47;;;3.97;;
50717;SDS011;60557;51.350;12.410;2023-03-21T11:31:35;5.43;;;2.72;;
50717;SDS011;60557;51.350;12.410;2023-03-21T11:34:07;6.28;;;3.15;;
50717;SDS011;60557;51.350;12.410;2023-03-21T11:36:34;7.20;;;3.17;;
50717;SDS011;60557;51.350;12.410;2023-03-21T11:41:33;6.68;;;3.38;;
50717;SDS011;60557;51.350;12.410;2023-03-21T11:44:00;5.72;;;2.58;;
50717;SDS011;60557;51.350;12.410;2023-03-21T11:46:27;5.07;;;2.72;;
50717;SDS011;60557;51.350;12.410;2023-03-21T11:48:55;5.90;;;2.17;;
50717;SDS011;60557;51.350;12.410;2023-03-21T11:56:39;7.60;;;2.88;;
50717;SDS011;60557;51.350;12.410;2023-03-21T11:59:12;3.65;;;2.20;;
50717;SDS011;60557;51.350;12.410;2023-03-21T12:06:59;5.35;;;2.50;;
50717;SDS011;60557;51.350;12.410;2023-03-21T12:17:47;5.30;;;2.75;;
50717;SDS011;60557;51.350;12.410;2023-03-21T12:20:20;6.65;;;3.47;;
50717;SDS011;60557;51.350;12.410;2023-03-21T12:27:53;4.68;;;2.60;;
50717;SDS011;60557;51.350;12.410;2023-03-21T12:30:29;5.25;;;2.85;;
50717;SDS011;60557;51.350;12.410;2023-03-21T12:35:29;5.40;;;2.53;;
50717;SDS011;60557;51.350;12.410;2023-03-21T12:38:07;4.03;;;2.45;;
50717;SDS011;60557;51.350;12.410;2023-03-21T12:45:47;6.03;;;2.75;;
50717;SDS011;60557;51.350;12.410;2023-03-21T12:48:24;4.22;;;2.30;;
50717;SDS011;60557;51.350;12.410;2023-03-21T12:50:52;5.03;;;2.70;;
50717;SDS011;60557;51.350;12.410;2023-03-21T12:55:54;5.38;;;2.60;;
50717;SDS011;60557;51.350;12.410;2023-03-21T12:58:32;7.25;;;3.33;;
50717;SDS011;60557;51.350;12.410;2023-03-21T13:00:59;5.80;;;2.58;;
50717;SDS011;60557;51.350;12.410;2023-03-21T13:03:34;5.55;;;2.53;;
50717;SDS011;60557;51.350;12.410;2023-03-21T13:06:06;6.40;;;2.47;;
50717;SDS011;60557;51.350;12.410;2023-03-21T13:11:20;6.45;;;2.97;;
50717;SDS011;60557;51.350;12.410;2023-03-21T13:14:06;7.82;;;2.42;;
50717;SDS011;60557;51.350;12.410;2023-03-21T13:16:40;4.97;;;2.10;;
50717;SDS011;60557;51.350;12.410;2023-03-21T13:26:46;4.13;;;1.90;;
50717;SDS011;60557;51.350;12.410;2023-03-21T13:29:30;4.00;;;2.13;;
50717;SDS011;60557;51.350;12.410;2023-03-21T13:32:07;7.03;;;2.00;;
50717;SDS011;60557;51.350;12.410;2023-03-21T13:34:36;5.55;;;2.22;;
50717;SDS011;60557;51.350;12.410;2023-03-21T13:37:02;5.03;;;2.10;;
50717;SDS011;60557;51.350;12.410;2023-03-21T13:39:28;5.45;;;1.90;;
50717;SDS011;60557;51.350;12.410;2023-03-21T13:41:58;4.90;;;1.80;;
50717;SDS011;60557;51.350;12.410;2023-03-21T13:44:43;23.65;;;18.63;;
50717;SDS011;60557;51.350;12.410;2023-03-21T13:47:22;6.57;;;3.65;;
50717;SDS011;60557;51.350;12.410;2023-03-21T13:52:33;4.38;;;2.10;;
50717;SDS011;60557;51.350;12.410;2023-03-21T13:54:59;3.65;;;1.80;;
50717;SDS011;60557;51.350;12.410;2023-03-21T14:02:56;4.90;;;2.08;;
50717;SDS011;60557;51.350;12.410;2023-03-21T14:05:23;4.47;;;1.38;;
50717;SDS011;60557;51.350;12.410;2023-03-21T14:07:55;8.23;;;1.75;;
50717;SDS011;60557;51.350;12.410;2023-03-21T14:12:51;4.13;;;2.30;;
50717;SDS011;60557;51.350;12.410;2023-03-21T14:15:22;3.75;;;1.42;;
50717;SDS011;60557;51.350;12.410;2023-03-21T14:17:53;3.47;;;1.77;;
50717;SDS011;60557;51.350;12.410;2023-03-21T14:22:48;5.40;;;1.60;;
50717;SDS011;60557;51.350;12.410;2023-03-21T14:25:16;6.25;;;1.63;;
50717;SDS011;60557;51.350;12.410;2023-03-21T14:27:43;2.80;;;1.77;;
50717;SDS011;60557;51.350;12.410;2023-03-21T14:30:11;5.78;;;1.70;;
50717;SDS011;60557;51.350;12.410;2023-03-21T14:32:43;3.00;;;1.67;;
50717;SDS011;60557;51.350;12.410;2023-03-21T14:35:11;4.00;;;2.22;;
50717;SDS011;60557;51.350;12.410;2023-03-21T14:37:39;5.53;;;2.15;;
50717;SDS011;60557;51.350;12.410;2023-03-21T14:40:07;4.35;;;2.42;;
50717;SDS011;60557;51.350;12.410;2023-03-21T14:42:34;4.10;;;1.88;;
50717;SDS011;60557;51.350;12.410;2023-03-21T14:45:09;4.82;;;2.53;;
50717;SDS011;60557;51.350;12.410;2023-03-21T14:47:36;4.80;;;2.35;;
50717;SDS011;60557;51.350;12.410;2023-03-21T14:50:05;5.03;;;2.00;;
50717;SDS011;60557;51.350;12.410;2023-03-21T14:52:32;5.35;;;2.10;;
50717;SDS011;60557;51.350;12.410;2023-03-21T14:54:59;11.10;;;1.90;;
50717;SDS011;60557;51.350;12.410;2023-03-21T14:57:27;5.15;;;2.05;;
50717;SDS011;60557;51.350;12.410;2023-03-21T14:59:55;4.13;;;2.10;;
50717;SDS011;60557;51.350;12.410;2023-03-21T15:02:36;5.18;;;1.88;;
50717;SDS011;60557;51.350;12.410;2023-03-21T15:05:08;7.35;;;2.72;;
50717;SDS011;60557;51.350;12.410;2023-03-21T15:07:35;3.30;;;1.70;;
50717;SDS011;60557;51.350;12.410;2023-03-21T15:10:22;6.80;;;1.90;;
50717;SDS011;60557;51.350;12.410;2023-03-21T15:12:48;5.10;;;2.00;;
50717;SDS011;60557;51.350;12.410;2023-03-21T15:15:15;4.55;;;1.88;;
50717;SDS011;60557;51.350;12.410;2023-03-21T15:17:43;3.35;;;2.00;;
50717;SDS011;60557;51.350;12.410;2023-03-21T15:20:14;3.83;;;1.75;;
50717;SDS011;60557;51.350;12.410;2023-03-21T15:22:44;4.10;;;1.98;;
50717;SDS011;60557;51.350;12.410;2023-03-21T15:25:12;4.97;;;2.25;;
50717;SDS011;60557;51.350;12.410;2023-03-21T15:27:45;5.15;;;2.22;;
50717;SDS011;60557;51.350;12.410;2023-03-21T15:30:17;5.43;;;2.60;;
50717;SDS011;60557;51.350;12.410;2023-03-21T15:32:43;5.75;;;1.75;;
50717;SDS011;60557;51.350;12.410;2023-03-21T15:38:02;3.67;;;1.90;;
50717;SDS011;60557;51.350;12.410;2023-03-21T15:40:29;4.95;;;2.22;;
50717;SDS011;60557;51.350;12.410;2023-03-21T15:45:44;3.72;;;1.52;;
50717;SDS011;60557;51.350;12.410;2023-03-21T15:48:12;5.03;;;1.80;;
50717;SDS011;60557;51.350;12.410;2023-03-21T15:50:42;7.85;;;4.30;;
50717;SDS011;60557;51.350;12.410;2023-03-21T15:53:15;4.70;;;1.65;;
50717;SDS011;60557;51.350;12.410;2023-03-21T15:55:48;9.18;;;2.15;;
50717;SDS011;60557;51.350;12.410;2023-03-21T15:58:22;3.72;;;1.75;;
50717;SDS011;60557;51.350;12.410;2023-03-21T16:00:53;5.15;;;2.25;;
50717;SDS011;60557;51.350;12.410;2023-03-21T16:03:27;7.78;;;4.28;;
50717;SDS011;60557;51.350;12.410;2023-03-21T16:06:01;3.85;;;1.85;;
50717;SDS011;60557;51.350;12.410;2023-03-21T16:08:33;4.15;;;1.98;;
50717;SDS011;60557;51.350;12.410;2023-03-21T16:13:26;4.93;;;1.75;;
50717;SDS011;60557;51.350;12.410;2023-03-21T16:15:52;7.13;;;2.28;;
50717;SDS011;60557;51.350;12.410;2023-03-21T16:18:18;4.72;;;1.90;;
50717;SDS011;60557;51.350;12.410;2023-03-21T16:20:44;5.50;;;1.58;;
50717;SDS011;60557;51.350;12.410;2023-03-21T16:23:14;6.60;;;2.00;;
50717;SDS011;60557;51.350;12.410;2023-03-21T16:25:41;5.68;;;1.90;;
50717;SDS011;60557;51.350;12.410;2023-03-21T16:28:11;9.52;;;4.25;;
50717;SDS011;60557;51.350;12.410;2023-03-21T16:30:38;5.93;;;2.15;;
50717;SDS011;60557;51.350;12.410;2023-03-21T16:33:04;5.82;;;1.88;;
50717;SDS011;60557;51.350;12.410;2023-03-21T16:35:31;3.17;;;1.70;;
50717;SDS011;60557;51.350;12.410;2023-03-21T16:37:57;4.05;;;1.63;;
50717;SDS011;60557;51.350;12.410;2023-03-21T16:40:30;5.07;;;1.85;;